createdAt,value
2023-02-19T00:01:52.270Z,36.84
2023-02-19T00:04:58.244Z,37.90
2023-02-19T00:08:04.762Z,39.48
2023-02-19T00:11:19.202Z,39.23
2023-02-19T00:14:25.869Z,39.46
2023-02-19T00:17:31.628Z,40.41
2023-02-19T00:20:38.240Z,36.29
2023-02-19T00:23:44.402Z,34.02
2023-02-19T00:26:53.731Z,30.18
2023-02-19T00:29:59.494Z,29.00
2023-02-19T00:33:06.276Z,29.38
2023-02-19T00:36:12.504Z,28.32
2023-02-19T00:39:21.573Z,28.76
2023-02-19T00:42:30.050Z,27.76
2023-02-19T00:45:37.063Z,27.94
2023-02-19T00:48:42.861Z,32.82
2023-02-19T00:51:50.489Z,35.23
2023-02-19T00:54:56.834Z,39.48
2023-02-19T00:58:06.036Z,39.43
2023-02-19T01:01:13.864Z,41.81
2023-02-19T01:04:20.553Z,48.37
2023-02-19T01:07:26.514Z,56.90
2023-02-19T01:10:33.099Z,60.94
2023-02-19T01:13:42.127Z,64.84
2023-02-19T01:16:48.992Z,63.71
2023-02-19T01:19:55.980Z,64.62
2023-02-19T01:23:02.640Z,71.90
2023-02-19T01:26:09.942Z,69.81
2023-02-19T01:29:20.260Z,72.83
2023-02-19T01:32:26.335Z,76.32
2023-02-19T01:35:33.134Z,78.63
2023-02-19T01:38:39.012Z,72.23
2023-02-19T01:41:45.945Z,66.51
2023-02-19T01:45:33.497Z,63.47
2023-02-19T01:48:42.997Z,57.55
2023-02-19T01:51:55.845Z,52.39
2023-02-19T01:55:06.309Z,46.57
2023-02-19T01:58:13.577Z,39.38
2023-02-19T02:01:24.131Z,36.05
2023-02-19T02:04:34.276Z,27.88
2023-02-19T02:07:53.455Z,27.98
2023-02-19T02:11:00.960Z,25.75
2023-02-19T02:14:08.768Z,25.89
2023-02-19T02:17:31.587Z,26.53
2023-02-19T02:21:16.202Z,31.54
2023-02-19T02:24:56.070Z,34.12
2023-02-19T02:28:29.114Z,39.65
2023-02-19T02:31:47.099Z,40.21
2023-02-19T02:35:04.209Z,42.50
2023-02-19T02:38:16.698Z,42.36
2023-02-19T02:41:24.213Z,42.96
2023-02-19T02:44:38.436Z,44.59
2023-02-19T02:47:56.068Z,47.59
2023-02-19T02:51:14.083Z,44.57
2023-02-19T02:54:46.907Z,43.11
2023-02-19T02:57:53.753Z,44.12
2023-02-19T03:01:20.410Z,47.55
2023-02-19T03:05:01.117Z,49.78
2023-02-19T03:08:17.244Z,50.16
2023-02-19T03:11:36.952Z,49.37
2023-02-19T03:15:04.451Z,46.03
2023-02-19T03:18:29.625Z,49.98
2023-02-19T03:21:46.519Z,51.50
2023-02-19T03:25:12.528Z,54.21
2023-02-19T03:28:45.683Z,60.58
2023-02-19T03:31:57.922Z,64.00
2023-02-19T03:35:16.819Z,62.91
2023-02-19T03:38:39.833Z,65.44
2023-02-19T03:42:06.025Z,67.29
2023-02-19T03:45:50.405Z,68.74
2023-02-19T03:49:08.442Z,64.72
2023-02-19T03:52:27.328Z,67.09
2023-02-19T03:55:52.235Z,61.42
2023-02-19T03:59:12.422Z,60.63
2023-02-19T04:02:32.910Z,67.06
2023-02-19T04:05:50.020Z,79.51
2023-02-19T04:09:02.757Z,76.39
2023-02-19T04:12:14.068Z,93.43
2023-02-19T04:15:29.608Z,83.06
2023-02-19T04:18:43.949Z,84.00
2023-02-19T04:21:53.528Z,97.67
2023-02-19T04:25:01.126Z,110.32
2023-02-19T04:28:12.473Z,135.97
2023-02-19T04:31:18.622Z,125.11
2023-02-19T04:34:25.306Z,118.64
2023-02-19T04:37:31.365Z,121.49
2023-02-19T04:40:38.198Z,157.28
2023-02-19T04:43:46.779Z,118.62
2023-02-19T04:46:53.519Z,103.93
2023-02-19T04:49:59.274Z,106.53
2023-02-19T04:53:05.800Z,67.95
2023-02-19T04:56:13.560Z,67.54
2023-02-19T04:59:22.765Z,59.84
2023-02-19T05:02:28.677Z,46.67
2023-02-19T05:05:35.187Z,42.81
2023-02-19T05:08:41.186Z,37.71
2023-02-19T05:11:47.783Z,31.03
2023-02-19T05:14:56.249Z,30.11
2023-02-19T05:18:03.029Z,36.23
2023-02-19T05:21:09.532Z,32.57
2023-02-19T05:24:16.293Z,31.46
2023-02-19T05:27:22.195Z,37.07
2023-02-19T05:30:33.438Z,36.97
2023-02-19T05:33:41.551Z,48.98
2023-02-19T05:36:48.034Z,52.16
2023-02-19T05:39:53.878Z,51.03
2023-02-19T05:43:00.539Z,66.27
2023-02-19T05:46:10.578Z,80.65
2023-02-19T05:49:17.255Z,83.70
2023-02-19T05:52:23.315Z,77.19
2023-02-19T05:55:30.015Z,81.89
2023-02-19T05:58:35.763Z,89.80
2023-02-19T06:01:45.090Z,106.01
2023-02-19T06:04:50.866Z,79.60
2023-02-19T06:07:57.464Z,53.18
2023-02-19T06:11:03.240Z,53.83
2023-02-19T06:14:10.344Z,63.75
2023-02-19T06:17:19.203Z,72.86
2023-02-19T06:20:26.390Z,76.58
2023-02-19T06:23:32.408Z,79.04
2023-02-19T06:26:39.621Z,78.93
2023-02-19T06:29:45.475Z,86.47
2023-02-19T06:32:55.833Z,88.76
2023-02-19T06:36:03.403Z,87.69
2023-02-19T06:39:10.284Z,95.78
2023-02-19T06:42:16.167Z,101.10
2023-02-19T06:45:22.676Z,111.62
2023-02-19T06:48:34.685Z,115.34
2023-02-19T06:51:41.198Z,206.89
2023-02-19T06:54:47.664Z,262.99
2023-02-19T06:57:54.394Z,254.47
2023-02-19T07:01:00.239Z,215.58
2023-02-19T07:04:10.504Z,147.01
2023-02-19T07:07:16.393Z,167.33
2023-02-19T07:10:23.036Z,140.02
2023-02-19T07:13:30.374Z,148.61
2023-02-19T07:16:37.347Z,156.97
2023-02-19T07:19:45.829Z,149.65
2023-02-19T07:22:52.344Z,157.40
2023-02-19T07:26:01.244Z,160.62
2023-02-19T07:29:08.068Z,174.10
2023-02-19T07:32:13.958Z,159.43
2023-02-19T07:35:23.227Z,151.74
2023-02-19T07:38:31.833Z,152.24
2023-02-19T07:41:38.381Z,150.82
2023-02-19T07:44:45.357Z,160.70
2023-02-19T07:47:51.957Z,161.72
2023-02-19T07:51:03.774Z,158.29
2023-02-19T07:54:10.445Z,163.94
2023-02-19T07:57:16.259Z,150.39
2023-02-19T08:00:23.235Z,140.91
2023-02-19T08:03:26.467Z,141.94
2023-02-19T08:06:35.891Z,138.29
2023-02-19T08:09:41.712Z,127.70
2023-02-19T08:13:09.868Z,131.61
2023-02-19T08:16:29.617Z,132.89
2023-02-19T08:19:43.972Z,130.34
2023-02-19T08:22:52.436Z,122.20
2023-02-19T08:26:02.880Z,125.58
2023-02-19T08:29:10.662Z,119.36
2023-02-19T08:32:17.227Z,126.82
2023-02-19T08:35:24.767Z,118.90
2023-02-19T08:38:35.939Z,114.83
2023-02-19T08:41:41.669Z,106.90
2023-02-19T08:44:48.486Z,111.93
2023-02-19T08:47:54.246Z,109.75
2023-02-19T08:51:04.816Z,105.69
2023-02-19T08:54:13.246Z,102.94
2023-02-19T08:57:20.001Z,120.50
2023-02-19T09:00:27.487Z,123.37
2023-02-19T09:03:34.527Z,100.52
2023-02-19T09:06:40.668Z,110.49
2023-02-19T09:09:50.148Z,108.63
2023-02-19T09:12:57.079Z,112.70
2023-02-19T09:16:08.858Z,113.00
2023-02-19T09:19:17.091Z,87.40
2023-02-19T09:22:23.693Z,95.45
2023-02-19T09:25:32.216Z,95.11
2023-02-19T09:28:41.889Z,106.44
2023-02-19T09:31:48.675Z,78.75
2023-02-19T09:34:55.691Z,87.45
2023-02-19T09:38:03.574Z,82.31
2023-02-19T09:41:25.771Z,72.40
2023-02-19T09:44:38.275Z,57.60
2023-02-19T09:47:44.888Z,69.38
2023-02-19T09:50:53.464Z,77.33
2023-02-19T09:54:01.924Z,73.18
2023-02-19T09:57:20.824Z,62.71
2023-02-19T10:00:32.868Z,59.38
2023-02-19T10:03:43.526Z,68.85
2023-02-19T10:06:59.134Z,143.85
2023-02-19T10:10:27.589Z,312.45
2023-02-19T10:13:45.666Z,763.39
2023-02-19T10:16:54.029Z,218.84
2023-02-19T10:20:03.506Z,259.26
2023-02-19T10:23:15.412Z,320.59
2023-02-19T10:26:23.312Z,396.25
2023-02-19T10:29:31.646Z,398.66
2023-02-19T10:32:42.268Z,433.79
2023-02-19T10:36:00.389Z,205.59
2023-02-19T10:39:43.890Z,199.78
2023-02-19T10:42:53.462Z,135.12
2023-02-19T10:46:07.781Z,132.22
2023-02-19T10:49:35.695Z,142.29
2023-02-19T10:52:42.580Z,99.76
2023-02-19T10:55:49.627Z,84.56
2023-02-19T10:58:56.816Z,86.40
2023-02-19T11:02:18.478Z,70.04
2023-02-19T11:05:25.590Z,62.04
2023-02-19T11:08:33.984Z,59.53
2023-02-19T11:11:43.480Z,93.30
2023-02-19T11:14:50.684Z,212.69
2023-02-19T11:18:25.124Z,148.22
2023-02-19T11:21:33.818Z,118.15
2023-02-19T11:24:42.390Z,110.19
2023-02-19T11:28:01.147Z,86.30
2023-02-19T11:31:26.595Z,93.41
2023-02-19T11:34:37.711Z,95.23
2023-02-19T11:38:00.100Z,45.58
2023-02-19T11:41:25.894Z,52.25
2023-02-19T11:44:55.392Z,58.89
2023-02-19T11:48:32.796Z,56.33
2023-02-19T11:52:11.057Z,57.53
2023-02-19T11:55:37.264Z,65.79
2023-02-19T11:59:05.086Z,72.25
2023-02-19T12:02:54.370Z,77.41
2023-02-19T12:06:25.972Z,67.72
2023-02-19T12:10:02.153Z,70.15
2023-02-19T12:13:26.629Z,85.77
2023-02-19T12:16:45.871Z,93.69
2023-02-19T12:20:21.724Z,90.93
2023-02-19T12:24:23.773Z,91.31
2023-02-19T12:27:56.031Z,187.16
2023-02-19T12:31:58.434Z,450.09
2023-02-19T12:35:40.555Z,103.82
2023-02-19T12:38:57.977Z,79.09
2023-02-19T12:42:24.643Z,71.88
2023-02-19T12:45:41.892Z,68.00
2023-02-19T12:49:01.685Z,67.71
2023-02-19T12:52:19.778Z,86.65
2023-02-19T12:55:34.056Z,67.46
2023-02-19T12:58:48.035Z,68.69
2023-02-19T13:02:15.726Z,113.05
2023-02-19T13:05:41.173Z,264.93
2023-02-19T13:09:07.572Z,266.83
2023-02-19T13:12:27.121Z,209.73
2023-02-19T13:15:44.535Z,247.88
2023-02-19T13:18:58.867Z,196.39
2023-02-19T13:22:38.653Z,132.09
2023-02-19T13:26:11.486Z,83.69
2023-02-19T13:29:44.982Z,125.85
2023-02-19T13:33:07.063Z,108.79
2023-02-19T13:36:28.770Z,127.58
2023-02-19T13:39:35.166Z,102.51
2023-02-19T13:42:42.577Z,98.30
2023-02-19T13:45:57.169Z,74.20
2023-02-19T13:49:45.741Z,48.45
2023-02-19T13:52:55.289Z,75.02
2023-02-19T13:56:02.055Z,74.59
2023-02-19T13:59:36.608Z,75.50
2023-02-19T14:02:43.486Z,78.63
2023-02-19T14:06:09.285Z,83.52
2023-02-19T14:09:50.385Z,65.94
2023-02-19T14:12:56.176Z,62.61
2023-02-19T14:16:02.806Z,98.63
2023-02-19T14:19:17.602Z,138.33
2023-02-19T14:23:11.501Z,79.41
2023-02-19T14:26:23.043Z,86.90
2023-02-19T14:29:32.587Z,81.40
2023-02-19T14:32:39.205Z,92.83
2023-02-19T14:35:50.484Z,168.76
2023-02-19T14:39:02.970Z,166.35
2023-02-19T14:42:25.215Z,137.07
2023-02-19T14:45:40.392Z,103.92
2023-02-19T14:48:52.264Z,114.64
2023-02-19T14:52:06.474Z,325.42
2023-02-19T14:55:28.918Z,585.16
2023-02-19T14:58:40.982Z,265.71
2023-02-19T15:01:47.781Z,98.86
2023-02-19T15:04:53.707Z,504.02
2023-02-19T15:08:06.048Z,923.02
2023-02-19T15:11:21.796Z,427.55
2023-02-19T15:14:32.442Z,199.61
2023-02-19T15:17:44.562Z,138.65
2023-02-19T15:21:01.120Z,142.27
2023-02-19T15:24:10.619Z,74.24
2023-02-19T15:27:23.451Z,81.17
2023-02-19T15:30:32.903Z,78.22
2023-02-19T15:33:42.047Z,93.14
2023-02-19T15:36:49.837Z,1206.85
2023-02-19T15:39:59.552Z,294.47
2023-02-19T15:43:05.881Z,351.32
2023-02-19T15:46:23.548Z,446.28
2023-02-19T15:49:45.126Z,805.17
2023-02-19T15:53:03.900Z,767.17
2023-02-19T15:56:19.098Z,792.55
2023-02-19T15:59:36.856Z,777.42
2023-02-19T16:02:49.461Z,536.54
2023-02-19T16:06:06.011Z,333.49
2023-02-19T16:09:26.171Z,319.86
2023-02-19T16:12:34.896Z,322.08
2023-02-19T16:15:43.873Z,224.34
2023-02-19T16:18:56.871Z,192.02
2023-02-19T16:22:04.732Z,198.72
2023-02-19T16:25:28.086Z,135.54
2023-02-19T16:28:42.262Z,120.88
2023-02-19T16:31:53.713Z,134.87
2023-02-19T16:35:02.432Z,146.56
2023-02-19T16:38:24.402Z,93.57
2023-02-19T16:41:31.143Z,72.39
2023-02-19T16:44:39.062Z,78.79
2023-02-19T16:47:48.608Z,92.42
2023-02-19T16:50:57.622Z,86.49
2023-02-19T16:54:04.756Z,88.25
2023-02-19T16:57:12.717Z,105.72
2023-02-19T17:00:22.515Z,110.16
2023-02-19T17:03:29.442Z,96.68
2023-02-19T17:06:39.844Z,90.80
2023-02-19T17:09:47.821Z,284.10
2023-02-19T17:12:56.328Z,204.18
2023-02-19T17:16:03.241Z,161.24
2023-02-19T17:19:16.965Z,111.19
2023-02-19T17:22:26.862Z,149.47
2023-02-19T17:25:33.777Z,138.40
2023-02-19T17:28:41.476Z,152.81
2023-02-19T17:31:48.837Z,159.43
2023-02-19T17:34:55.109Z,160.39
2023-02-19T17:38:09.739Z,112.20
2023-02-19T17:41:15.721Z,129.42
2023-02-19T17:44:22.531Z,109.09
2023-02-19T17:47:28.587Z,196.45
2023-02-19T17:50:36.103Z,191.16
2023-02-19T17:53:46.670Z,115.78
2023-02-19T17:56:53.863Z,125.66
2023-02-19T17:59:59.876Z,182.07
2023-02-19T18:03:07.631Z,151.17
2023-02-19T18:06:14.269Z,164.78
2023-02-19T18:09:23.924Z,171.83
2023-02-19T18:12:29.814Z,128.62
2023-02-19T18:15:36.735Z,98.79
2023-02-19T18:18:44.563Z,88.40
2023-02-19T18:21:51.211Z,97.45
2023-02-19T18:24:59.802Z,99.93
2023-02-19T18:28:06.719Z,120.91
2023-02-19T18:31:15.330Z,113.01
2023-02-19T18:34:23.276Z,124.44
2023-02-19T18:37:31.903Z,102.24
2023-02-19T18:40:41.715Z,115.40
2023-02-19T18:43:51.034Z,144.06
2023-02-19T18:47:02.600Z,145.56
2023-02-19T18:50:13.536Z,162.09
2023-02-19T18:53:20.428Z,171.36
2023-02-19T18:56:29.539Z,138.67
2023-02-19T18:59:36.585Z,137.09
2023-02-19T19:02:48.994Z,119.28
2023-02-19T19:05:58.696Z,128.05
2023-02-19T19:09:06.492Z,120.69
2023-02-19T19:12:16.500Z,122.69
2023-02-19T19:15:22.683Z,117.24
2023-02-19T19:18:31.405Z,479.45
2023-02-19T19:21:39.288Z,504.75
2023-02-19T19:24:46.869Z,256.24
2023-02-19T19:27:59.195Z,210.34
2023-02-19T19:31:06.017Z,154.00
2023-02-19T19:34:12.379Z,232.13
2023-02-19T19:37:19.443Z,152.96
2023-02-19T19:40:25.406Z,182.07
2023-02-19T19:43:36.783Z,182.94
2023-02-19T19:46:48.662Z,185.80
2023-02-19T19:49:55.422Z,178.12
2023-02-19T19:53:01.354Z,219.89
2023-02-19T19:56:09.665Z,218.20
2023-02-19T19:59:20.373Z,179.75
2023-02-19T20:02:28.989Z,200.87
2023-02-19T20:05:35.077Z,147.21
2023-02-19T20:08:43.958Z,167.30
2023-02-19T20:11:52.995Z,170.39
2023-02-19T20:15:03.359Z,214.46
2023-02-19T20:18:09.523Z,401.27
2023-02-19T20:21:16.312Z,485.60
2023-02-19T20:24:26.515Z,586.39
2023-02-19T20:27:33.185Z,659.15
2023-02-19T20:30:42.286Z,393.26
2023-02-19T20:33:51.696Z,259.80
2023-02-19T20:37:00.193Z,470.03
2023-02-19T20:40:09.330Z,520.67
2023-02-19T20:43:17.859Z,346.81
2023-02-19T20:46:27.116Z,241.70
2023-02-19T20:49:35.417Z,415.13
2023-02-19T20:52:42.975Z,398.54
2023-02-19T20:55:48.823Z,554.56
2023-02-19T20:58:55.977Z,335.39
2023-02-19T21:02:05.471Z,375.04
2023-02-19T21:05:13.754Z,281.40
2023-02-19T21:08:19.972Z,222.80
2023-02-19T21:11:26.573Z,368.14
2023-02-19T21:14:32.439Z,337.99
2023-02-19T21:17:41.798Z,341.05
2023-02-19T21:20:48.130Z,248.37
2023-02-19T21:23:54.954Z,310.99
2023-02-19T21:27:00.782Z,211.01
2023-02-19T21:30:09.622Z,149.95
2023-02-19T21:33:18.448Z,192.48
2023-02-19T21:36:26.667Z,191.21
2023-02-19T21:39:33.688Z,191.87
2023-02-19T21:42:40.397Z,170.15
2023-02-19T21:45:46.578Z,172.47
2023-02-19T21:48:58.554Z,226.11
2023-02-19T21:52:04.289Z,364.71
2023-02-19T21:55:11.400Z,380.06
2023-02-19T21:58:17.613Z,459.39
2023-02-19T22:01:26.213Z,301.70
2023-02-19T22:04:34.536Z,240.67
2023-02-19T22:07:41.824Z,269.28
2023-02-19T22:10:48.120Z,245.18
2023-02-19T22:13:55.449Z,207.20
2023-02-19T22:17:01.422Z,315.81
2023-02-19T22:20:11.993Z,182.94
2023-02-19T22:23:17.980Z,178.64
2023-02-19T22:26:28.222Z,194.70
2023-02-19T22:29:34.379Z,175.62
2023-02-19T22:32:41.154Z,162.23
2023-02-19T22:35:49.848Z,159.31
2023-02-19T22:38:57.949Z,150.53
2023-02-19T22:42:03.968Z,165.80
2023-02-19T22:45:13.825Z,141.66
2023-02-19T22:48:29.511Z,125.60
2023-02-19T22:51:40.483Z,141.06
2023-02-19T22:54:46.865Z,127.94
2023-02-19T22:57:53.635Z,124.74
2023-02-19T23:00:59.448Z,131.63
2023-02-19T23:04:06.227Z,260.36
2023-02-19T23:07:14.695Z,385.44
2023-02-19T23:10:21.413Z,493.06
2023-02-19T23:13:30.462Z,308.46
2023-02-19T23:16:38.981Z,285.61
2023-02-19T23:19:51.301Z,309.78
2023-02-19T23:23:01.037Z,187.00
2023-02-19T23:26:08.764Z,169.59
2023-02-19T23:29:19.691Z,176.79
2023-02-19T23:32:28.409Z,340.42
2023-02-19T23:35:35.305Z,551.80
2023-02-19T23:38:46.057Z,316.45
2023-02-19T23:41:55.403Z,394.39
2023-02-19T23:45:01.675Z,252.08
2023-02-19T23:48:08.365Z,311.17
2023-02-19T23:51:14.558Z,268.05
2023-02-19T23:54:23.746Z,266.95
2023-02-19T23:57:29.571Z,324.88
